MSR980 HECA-OKKK
Flight info
| Callsign | MSR980 |
|---|---|
| Flight time | 1h 2m |
| Altitude | 37000 |
| Route | CVO L677 MENLI N697 SISIK DCT VUTAR DCT TAKSU DCT KARIK B411 ULINA DCT ELETA DCT TAMIM DCT PETRA DCT DEESA DCT BOSAL DCT LABAD DCT NIMAR DCT ULAKO DCT NORGI DCT TOLDI DCT ORSAL DCT RASMO DCT VATIM V45 HFR A788 KFR |
| Aircraft | A320/M-SDE3FGHIRWY/LB1 |
Departure
| Time | 2026-05-09 11:49 |
|---|---|
| Airport | Cairo International Airport (HECA) |
Arrival
| Time | 2026-05-09 12:51 |
|---|---|
| Airport | Kuwait International Airport (OKKK) |
| Time | Latitude | Longitude | Altitude | Speed | Heading |
|---|---|---|---|---|---|
| 2026-05-09 11:33 | 30.10736 | 31.39682 | 370 ft | 0 kts | 256° |
| 2026-05-09 11:41 | 30.10736 | 31.39686 | 370 ft | 3 kts | 255° |
| 2026-05-09 11:41 | 30.10743 | 31.39710 | 370 ft | 3 kts | 248° |
| 2026-05-09 11:42 | 30.10752 | 31.39733 | 370 ft | 3 kts | 238° |
| 2026-05-09 11:42 | 30.10765 | 31.39753 | 370 ft | 3 kts | 221° |
| 2026-05-09 11:42 | 30.10783 | 31.39767 | 370 ft | 3 kts | 191° |
| 2026-05-09 11:42 | 30.10796 | 31.39768 | 370 ft | 0 kts | 166° |
| 2026-05-09 11:45 | 30.10783 | 31.39772 | 370 ft | 5 kts | 166° |
| 2026-05-09 11:45 | 30.10735 | 31.39786 | 370 ft | 5 kts | 166° |
| 2026-05-09 11:45 | 30.10685 | 31.39800 | 370 ft | 10 kts | 166° |
| 2026-05-09 11:45 | 30.10605 | 31.39824 | 371 ft | 13 kts | 165° |
| 2026-05-09 11:46 | 30.10515 | 31.39852 | 376 ft | 14 kts | 165° |
| 2026-05-09 11:46 | 30.10422 | 31.39863 | 380 ft | 14 kts | 200° |
| 2026-05-09 11:46 | 30.10346 | 31.39781 | 381 ft | 17 kts | 232° |
| 2026-05-09 11:46 | 30.10270 | 31.39677 | 386 ft | 18 kts | 229° |
| 2026-05-09 11:47 | 30.10183 | 31.39567 | 389 ft | 19 kts | 212° |
| 2026-05-09 11:47 | 30.10101 | 31.39602 | 389 ft | 15 kts | 131° |
| 2026-05-09 11:47 | 30.10019 | 31.39699 | 389 ft | 16 kts | 136° |
| 2026-05-09 11:47 | 30.09995 | 31.39835 | 389 ft | 20 kts | 88° |
| 2026-05-09 11:48 | 30.10022 | 31.39904 | 389 ft | 2 kts | 53° |
| 2026-05-09 11:48 | 30.10029 | 31.39913 | 389 ft | 6 kts | 51° |
| 2026-05-09 11:48 | 30.10282 | 31.40243 | 389 ft | 98 kts | 49° |
| 2026-05-09 11:48 | 30.10883 | 31.41038 | 389 ft | 162 kts | 49° |
| 2026-05-09 11:49 | 30.11661 | 31.42062 | 1059 ft | 174 kts | 45° |
| 2026-05-09 11:49 | 30.12505 | 31.43144 | 1841 ft | 187 kts | 51° |
| 2026-05-09 11:49 | 30.12794 | 31.44617 | 2543 ft | 203 kts | 99° |
| 2026-05-09 11:49 | 30.12059 | 31.46063 | 3378 ft | 215 kts | 124° |
| 2026-05-09 11:50 | 30.11043 | 31.47356 | 4252 ft | 220 kts | 129° |
| 2026-05-09 11:50 | 30.10003 | 31.48682 | 4984 ft | 229 kts | 119° |
| 2026-05-09 11:50 | 30.09206 | 31.50342 | 5547 ft | 246 kts | 110° |
| 2026-05-09 11:50 | 30.08502 | 31.52182 | 6469 ft | 253 kts | 108° |
| 2026-05-09 11:51 | 30.07807 | 31.54069 | 7426 ft | 259 kts | 109° |
| 2026-05-09 11:51 | 30.07065 | 31.56057 | 8138 ft | 281 kts | 108° |
| 2026-05-09 11:51 | 30.06256 | 31.58157 | 8847 ft | 291 kts | 109° |
| 2026-05-09 11:51 | 30.05402 | 31.60307 | 9442 ft | 298 kts | 112° |
| 2026-05-09 11:52 | 30.04511 | 31.62490 | 10093 ft | 304 kts | 112° |
| 2026-05-09 11:52 | 30.03573 | 31.64758 | 10321 ft | 324 kts | 114° |
| 2026-05-09 11:52 | 30.02566 | 31.67183 | 10496 ft | 344 kts | 114° |
| 2026-05-09 11:52 | 30.01518 | 31.69705 | 10909 ft | 353 kts | 114° |
| 2026-05-09 11:53 | 30.00449 | 31.72275 | 11481 ft | 357 kts | 114° |
| 2026-05-09 11:53 | 29.99369 | 31.74872 | 12036 ft | 362 kts | 114° |
| 2026-05-09 11:53 | 29.98277 | 31.77495 | 12631 ft | 365 kts | 114° |
| 2026-05-09 11:53 | 29.97168 | 31.80156 | 13172 ft | 370 kts | 115° |
| 2026-05-09 11:54 | 29.96410 | 31.81972 | 13550 ft | 373 kts | 115° |
| 2026-05-09 11:54 | 29.95282 | 31.84675 | 14130 ft | 376 kts | 115° |
| 2026-05-09 11:54 | 29.94148 | 31.87398 | 14660 ft | 378 kts | 115° |
| 2026-05-09 11:54 | 29.93004 | 31.90145 | 15166 ft | 382 kts | 116° |
| 2026-05-09 11:55 | 29.91849 | 31.92913 | 15681 ft | 385 kts | 116° |
| 2026-05-09 11:56 | 29.67872 | 32.49980 | 24575 ft | 441 kts | 117° |
| 2026-05-09 11:56 | 29.62433 | 32.62799 | 25991 ft | 451 kts | 117° |
| 2026-05-09 11:56 | 29.60118 | 32.76909 | 27326 ft | 461 kts | 88° |
| 2026-05-09 11:57 | 29.60242 | 32.91765 | 28543 ft | 470 kts | 89° |
| 2026-05-09 11:57 | 29.60355 | 33.06952 | 29730 ft | 480 kts | 89° |
| 2026-05-09 11:57 | 29.60399 | 33.11488 | 30076 ft | 483 kts | 89° |
| 2026-05-09 11:57 | 29.60434 | 33.15371 | 30328 ft | 485 kts | 89° |
| 2026-05-09 11:58 | 29.60466 | 33.19252 | 30590 ft | 486 kts | 89° |
| 2026-05-09 11:58 | 29.60493 | 33.23145 | 30853 ft | 488 kts | 89° |
| 2026-05-09 11:58 | 29.60517 | 33.27051 | 31114 ft | 490 kts | 89° |
| 2026-05-09 11:58 | 29.60539 | 33.30970 | 31370 ft | 491 kts | 89° |
| 2026-05-09 11:59 | 29.60563 | 33.34905 | 31597 ft | 494 kts | 89° |
| 2026-05-09 11:59 | 29.60584 | 33.38865 | 31787 ft | 497 kts | 89° |
| 2026-05-09 11:59 | 29.60603 | 33.42840 | 32057 ft | 497 kts | 90° |
| 2026-05-09 11:59 | 29.60619 | 33.46801 | 32401 ft | 496 kts | 90° |
| 2026-05-09 12:00 | 29.60636 | 33.50763 | 32729 ft | 496 kts | 90° |
| 2026-05-09 12:00 | 29.60656 | 33.54722 | 33064 ft | 495 kts | 90° |
| 2026-05-09 12:00 | 29.60678 | 33.58675 | 33412 ft | 494 kts | 90° |
| 2026-05-09 12:00 | 29.60695 | 33.62622 | 33744 ft | 494 kts | 90° |
| 2026-05-09 12:01 | 29.60707 | 33.66712 | 34090 ft | 493 kts | 90° |
| 2026-05-09 12:01 | 29.60745 | 33.81350 | 35173 ft | 490 kts | 90° |
| 2026-05-09 12:01 | 29.60774 | 33.96967 | 36186 ft | 488 kts | 91° |
| 2026-05-09 12:01 | 29.60783 | 34.12535 | 37049 ft | 487 kts | 91° |
| 2026-05-09 12:02 | 29.60775 | 34.27957 | 37056 ft | 480 kts | 91° |
| 2026-05-09 12:02 | 29.60748 | 34.42379 | 36909 ft | 485 kts | 91° |
| 2026-05-09 12:02 | 29.60738 | 34.46236 | 36982 ft | 481 kts | 91° |
| 2026-05-09 12:03 | 29.60397 | 34.53980 | 36990 ft | 482 kts | 104° |
| 2026-05-09 12:03 | 29.58137 | 34.61112 | 36991 ft | 473 kts | 124° |
| 2026-05-09 12:03 | 29.55053 | 34.65786 | 36972 ft | 463 kts | 140° |
| 2026-05-09 12:04 | 29.45829 | 34.75978 | 36899 ft | 472 kts | 124° |
| 2026-05-09 12:04 | 29.43189 | 34.84131 | 36883 ft | 481 kts | 101° |
| 2026-05-09 12:04 | 29.42172 | 34.91724 | 36946 ft | 484 kts | 101° |
| 2026-05-09 12:04 | 29.42101 | 34.99455 | 36959 ft | 488 kts | 82° |
| 2026-05-09 12:05 | 29.43743 | 35.07013 | 36976 ft | 489 kts | 75° |
| 2026-05-09 12:05 | 29.47273 | 35.22089 | 36964 ft | 489 kts | 75° |
| 2026-05-09 12:06 | 29.50762 | 35.37194 | 36989 ft | 490 kts | 75° |
| 2026-05-09 12:06 | 29.54280 | 35.52298 | 36984 ft | 491 kts | 75° |
| 2026-05-09 12:07 | 29.57895 | 35.67427 | 36972 ft | 491 kts | 75° |
| 2026-05-09 12:07 | 29.63058 | 35.91878 | 36973 ft | 492 kts | 81° |
| 2026-05-09 12:08 | 29.67912 | 36.22864 | 36980 ft | 492 kts | 79° |
| 2026-05-09 12:08 | 29.72909 | 36.53905 | 36979 ft | 494 kts | 80° |
| 2026-05-09 12:08 | 29.74741 | 36.69529 | 36930 ft | 492 kts | 96° |
| 2026-05-09 12:09 | 29.71957 | 36.84783 | 36949 ft | 487 kts | 105° |
| 2026-05-09 12:09 | 29.65921 | 37.15069 | 37096 ft | 482 kts | 106° |
| 2026-05-09 12:10 | 29.58555 | 37.51485 | 36979 ft | 484 kts | 106° |
| 2026-05-09 12:10 | 29.57780 | 37.55256 | 37024 ft | 486 kts | 106° |
| 2026-05-09 12:11 | 29.54675 | 37.70274 | 37027 ft | 487 kts | 106° |
| 2026-05-09 12:11 | 29.51549 | 37.85398 | 37029 ft | 486 kts | 106° |
| 2026-05-09 12:12 | 29.47102 | 38.07637 | 37033 ft | 488 kts | 103° |
| 2026-05-09 12:12 | 29.41739 | 38.38163 | 37057 ft | 488 kts | 104° |
| 2026-05-09 12:13 | 29.36230 | 38.68652 | 37057 ft | 489 kts | 104° |
| 2026-05-09 12:13 | 29.30502 | 38.99132 | 37074 ft | 489 kts | 107° |
| 2026-05-09 12:14 | 29.24069 | 39.29432 | 37093 ft | 490 kts | 106° |
| 2026-05-09 12:14 | 29.17635 | 39.59722 | 37093 ft | 490 kts | 106° |
| 2026-05-09 12:15 | 29.11250 | 39.89990 | 37062 ft | 492 kts | 98° |
| 2026-05-09 12:15 | 29.12071 | 40.21303 | 37115 ft | 493 kts | 88° |
| 2026-05-09 12:16 | 29.13116 | 40.52646 | 37137 ft | 493 kts | 88° |
| 2026-05-09 12:16 | 29.11956 | 40.83940 | 37109 ft | 493 kts | 94° |
| 2026-05-09 12:17 | 29.10284 | 41.15250 | 37117 ft | 493 kts | 95° |
| 2026-05-09 12:17 | 29.08545 | 41.46554 | 37114 ft | 493 kts | 95° |
| 2026-05-09 12:18 | 29.06743 | 41.78083 | 37111 ft | 494 kts | 95° |
| 2026-05-09 12:18 | 29.04859 | 42.09359 | 37100 ft | 494 kts | 95° |
| 2026-05-09 12:19 | 29.02915 | 42.40671 | 37097 ft | 494 kts | 95° |
| 2026-05-09 12:19 | 29.00905 | 42.71949 | 37099 ft | 493 kts | 95° |
| 2026-05-09 12:20 | 28.98792 | 43.03222 | 37081 ft | 494 kts | 96° |
| 2026-05-09 12:20 | 28.96630 | 43.34478 | 37084 ft | 494 kts | 96° |
| 2026-05-09 12:21 | 28.94381 | 43.65725 | 37058 ft | 493 kts | 97° |
| 2026-05-09 12:21 | 28.92068 | 43.96903 | 37070 ft | 493 kts | 97° |
| 2026-05-09 12:22 | 28.89689 | 44.28116 | 37059 ft | 493 kts | 97° |
| 2026-05-09 12:22 | 28.87241 | 44.59313 | 37065 ft | 494 kts | 98° |
| 2026-05-09 12:22 | 28.85687 | 44.74849 | 36999 ft | 490 kts | 109° |
| 2026-05-09 12:23 | 28.80679 | 44.89102 | 36891 ft | 485 kts | 116° |
| 2026-05-09 12:23 | 28.72630 | 45.11552 | 36968 ft | 479 kts | 117° |
| 2026-05-09 12:24 | 28.67468 | 45.25668 | 37058 ft | 486 kts | 117° |
| 2026-05-09 12:24 | 28.62285 | 45.39889 | 37044 ft | 486 kts | 117° |
| 2026-05-09 12:25 | 28.57042 | 45.54152 | 37043 ft | 486 kts | 117° |
| 2026-05-09 12:25 | 28.52708 | 45.65940 | 37041 ft | 486 kts | 118° |
| 2026-05-09 12:26 | 28.47486 | 45.80105 | 37041 ft | 486 kts | 118° |
| 2026-05-09 12:26 | 28.42236 | 45.94249 | 37024 ft | 486 kts | 118° |
| 2026-05-09 12:27 | 28.38447 | 46.04441 | 36926 ft | 486 kts | 118° |
| 2026-05-09 12:27 | 28.37278 | 46.08033 | 36542 ft | 488 kts | 109° |
| 2026-05-09 12:27 | 28.36591 | 46.11823 | 35897 ft | 493 kts | 98° |
| 2026-05-09 12:27 | 28.36458 | 46.15732 | 35208 ft | 498 kts | 87° |
| 2026-05-09 12:28 | 28.36879 | 46.19621 | 34726 ft | 495 kts | 79° |
| 2026-05-09 12:28 | 28.37457 | 46.23470 | 34196 ft | 494 kts | 79° |
| 2026-05-09 12:28 | 28.38015 | 46.27315 | 33597 ft | 493 kts | 79° |
| 2026-05-09 12:28 | 28.38557 | 46.31144 | 33081 ft | 490 kts | 80° |
| 2026-05-09 12:29 | 28.39090 | 46.34951 | 32544 ft | 487 kts | 80° |
| 2026-05-09 12:29 | 28.39623 | 46.38737 | 32023 ft | 484 kts | 79° |
| 2026-05-09 12:29 | 28.40155 | 46.42503 | 31482 ft | 481 kts | 79° |
| 2026-05-09 12:29 | 28.40688 | 46.46248 | 30952 ft | 479 kts | 79° |
| 2026-05-09 12:30 | 28.41218 | 46.49973 | 30421 ft | 477 kts | 79° |
| 2026-05-09 12:30 | 28.41744 | 46.53684 | 29862 ft | 475 kts | 79° |
| 2026-05-09 12:30 | 28.42788 | 46.61074 | 28808 ft | 467 kts | 79° |
| 2026-05-09 12:31 | 28.43299 | 46.64706 | 28302 ft | 464 kts | 79° |
| 2026-05-09 12:31 | 28.44307 | 46.71891 | 27312 ft | 457 kts | 79° |
| 2026-05-09 12:31 | 28.44806 | 46.75449 | 26835 ft | 454 kts | 79° |
| 2026-05-09 12:32 | 28.45302 | 46.78986 | 26371 ft | 452 kts | 79° |
| 2026-05-09 12:32 | 28.45793 | 46.82505 | 25919 ft | 450 kts | 79° |
| 2026-05-09 12:32 | 28.46280 | 46.86005 | 25475 ft | 447 kts | 79° |
| 2026-05-09 12:32 | 28.46762 | 46.89490 | 25042 ft | 445 kts | 79° |
| 2026-05-09 12:33 | 28.47242 | 46.92962 | 24607 ft | 444 kts | 79° |
| 2026-05-09 12:33 | 28.47721 | 46.96423 | 24175 ft | 443 kts | 79° |
| 2026-05-09 12:33 | 28.48198 | 46.99880 | 23724 ft | 443 kts | 79° |
| 2026-05-09 12:33 | 28.48676 | 47.03327 | 23236 ft | 442 kts | 79° |
| 2026-05-09 12:34 | 28.49153 | 47.06769 | 22766 ft | 440 kts | 79° |
| 2026-05-09 12:34 | 28.49627 | 47.10202 | 22307 ft | 438 kts | 79° |
| 2026-05-09 12:34 | 28.50095 | 47.13616 | 21828 ft | 436 kts | 79° |
| 2026-05-09 12:34 | 28.50557 | 47.17017 | 21350 ft | 434 kts | 79° |
| 2026-05-09 12:35 | 28.51017 | 47.20406 | 20865 ft | 433 kts | 79° |
| 2026-05-09 12:35 | 28.51474 | 47.23781 | 20448 ft | 429 kts | 79° |
| 2026-05-09 12:35 | 28.51928 | 47.27128 | 19953 ft | 428 kts | 79° |
| 2026-05-09 12:35 | 28.52378 | 47.30443 | 19608 ft | 422 kts | 79° |
| 2026-05-09 12:36 | 28.52825 | 47.33732 | 19148 ft | 420 kts | 79° |
| 2026-05-09 12:36 | 28.53270 | 47.36998 | 18717 ft | 416 kts | 79° |
| 2026-05-09 12:36 | 28.53710 | 47.40239 | 18285 ft | 413 kts | 79° |
| 2026-05-09 12:36 | 28.54143 | 47.43454 | 17785 ft | 410 kts | 79° |
| 2026-05-09 12:37 | 28.54572 | 47.46644 | 17259 ft | 407 kts | 79° |
| 2026-05-09 12:37 | 28.54999 | 47.49816 | 16738 ft | 405 kts | 79° |
| 2026-05-09 12:37 | 28.55422 | 47.52972 | 16227 ft | 402 kts | 79° |
| 2026-05-09 12:37 | 28.55844 | 47.56110 | 15707 ft | 400 kts | 80° |
| 2026-05-09 12:38 | 28.56261 | 47.59234 | 15212 ft | 398 kts | 80° |
| 2026-05-09 12:38 | 28.56678 | 47.62384 | 14724 ft | 396 kts | 80° |
| 2026-05-09 12:38 | 28.57085 | 47.65481 | 14221 ft | 395 kts | 80° |
| 2026-05-09 12:38 | 28.57519 | 47.68561 | 13735 ft | 393 kts | 79° |
| 2026-05-09 12:39 | 28.58006 | 47.71608 | 13233 ft | 391 kts | 78° |
| 2026-05-09 12:39 | 28.58523 | 47.74635 | 12755 ft | 388 kts | 77° |
| 2026-05-09 12:39 | 28.59046 | 47.77631 | 12279 ft | 384 kts | 77° |
| 2026-05-09 12:39 | 28.59562 | 47.80602 | 11830 ft | 381 kts | 77° |
| 2026-05-09 12:40 | 28.60066 | 47.83548 | 11388 ft | 378 kts | 78° |
| 2026-05-09 12:40 | 28.60555 | 47.86471 | 10936 ft | 374 kts | 78° |
| 2026-05-09 12:40 | 28.61032 | 47.89371 | 10512 ft | 371 kts | 78° |
| 2026-05-09 12:40 | 28.61582 | 47.92187 | 10353 ft | 358 kts | 69° |
| 2026-05-09 12:41 | 28.62698 | 47.94633 | 10231 ft | 341 kts | 50° |
| 2026-05-09 12:41 | 28.64316 | 47.96492 | 10111 ft | 323 kts | 31° |
| 2026-05-09 12:41 | 28.66227 | 47.97699 | 9907 ft | 309 kts | 17° |
| 2026-05-09 12:41 | 28.68216 | 47.98599 | 9559 ft | 307 kts | 17° |
| 2026-05-09 12:42 | 28.70194 | 47.99487 | 9224 ft | 304 kts | 17° |
| 2026-05-09 12:42 | 28.72158 | 48.00368 | 8891 ft | 302 kts | 17° |
| 2026-05-09 12:42 | 28.74108 | 48.01245 | 8559 ft | 300 kts | 17° |
| 2026-05-09 12:42 | 28.76040 | 48.02116 | 8250 ft | 297 kts | 17° |
| 2026-05-09 12:43 | 28.77955 | 48.02983 | 7935 ft | 295 kts | 17° |
| 2026-05-09 12:43 | 28.79856 | 48.03844 | 7617 ft | 293 kts | 18° |
| 2026-05-09 12:43 | 28.81739 | 48.04698 | 7325 ft | 290 kts | 18° |
| 2026-05-09 12:43 | 28.83604 | 48.05546 | 7020 ft | 288 kts | 18° |
| 2026-05-09 12:44 | 28.85456 | 48.06387 | 6695 ft | 286 kts | 18° |
| 2026-05-09 12:44 | 28.87300 | 48.07220 | 6415 ft | 283 kts | 18° |
| 2026-05-09 12:44 | 28.89124 | 48.08044 | 6092 ft | 281 kts | 18° |
| 2026-05-09 12:44 | 28.90964 | 48.08876 | 5755 ft | 280 kts | 19° |
| 2026-05-09 12:45 | 28.92801 | 48.09707 | 5099 ft | 290 kts | 19° |
| 2026-05-09 12:45 | 28.94694 | 48.10565 | 4350 ft | 303 kts | 19° |
| 2026-05-09 12:45 | 28.96765 | 48.11270 | 3556 ft | 311 kts | 6° |
| 2026-05-09 12:45 | 28.98909 | 48.11270 | 3130 ft | 306 kts | 351° |
| 2026-05-09 12:46 | 29.00909 | 48.10630 | 2985 ft | 293 kts | 338° |
| 2026-05-09 12:46 | 29.02704 | 48.09686 | 2974 ft | 273 kts | 336° |
| 2026-05-09 12:46 | 29.04342 | 48.08820 | 2978 ft | 246 kts | 336° |
| 2026-05-09 12:46 | 29.05816 | 48.08042 | 2981 ft | 220 kts | 335° |
| 2026-05-09 12:47 | 29.07131 | 48.07347 | 2967 ft | 196 kts | 335° |
| 2026-05-09 12:47 | 29.08297 | 48.06730 | 2839 ft | 177 kts | 335° |
| 2026-05-09 12:47 | 29.09370 | 48.06163 | 2670 ft | 165 kts | 335° |
| 2026-05-09 12:47 | 29.10392 | 48.05622 | 2453 ft | 160 kts | 335° |
| 2026-05-09 12:48 | 29.11368 | 48.05105 | 2262 ft | 146 kts | 335° |
| 2026-05-09 12:48 | 29.12277 | 48.04624 | 2072 ft | 141 kts | 335° |
| 2026-05-09 12:48 | 29.13159 | 48.04156 | 1894 ft | 138 kts | 336° |
| 2026-05-09 12:48 | 29.14020 | 48.03700 | 1720 ft | 135 kts | 336° |
| 2026-05-09 12:49 | 29.14863 | 48.03253 | 1553 ft | 133 kts | 337° |
| 2026-05-09 12:49 | 29.15703 | 48.02808 | 1378 ft | 133 kts | 337° |
| 2026-05-09 12:49 | 29.16544 | 48.02362 | 1211 ft | 134 kts | 336° |
| 2026-05-09 12:49 | 29.17393 | 48.01912 | 1042 ft | 135 kts | 336° |
| 2026-05-09 12:50 | 29.18257 | 48.01453 | 892 ft | 139 kts | 338° |
| 2026-05-09 12:50 | 29.19125 | 48.00973 | 734 ft | 135 kts | 338° |
| 2026-05-09 12:50 | 29.19974 | 48.00529 | 530 ft | 132 kts | 340° |
| 2026-05-09 12:50 | 29.20813 | 48.00090 | 356 ft | 134 kts | 338° |
| 2026-05-09 12:51 | 29.21661 | 47.99645 | 222 ft | 134 kts | 337° |
| 2026-05-09 12:51 | 29.22447 | 47.99248 | 182 ft | 103 kts | 339° |
| 2026-05-09 12:51 | 29.22939 | 47.98975 | 174 ft | 54 kts | 330° |
| 2026-05-09 12:51 | 29.23124 | 47.98851 | 174 ft | 21 kts | 322° |
| 2026-05-09 12:52 | 29.23222 | 47.98722 | 175 ft | 22 kts | 304° |
| 2026-05-09 12:52 | 29.23299 | 47.98596 | 173 ft | 20 kts | 305° |
| 2026-05-09 12:52 | 29.23393 | 47.98467 | 172 ft | 22 kts | 326° |
| 2026-05-09 12:52 | 29.23536 | 47.98399 | 171 ft | 23 kts | 337° |
| 2026-05-09 12:53 | 29.23683 | 47.98320 | 170 ft | 23 kts | 333° |
| 2026-05-09 12:53 | 29.23818 | 47.98246 | 169 ft | 22 kts | 335° |
| 2026-05-09 12:53 | 29.23919 | 47.98192 | 168 ft | 0 kts | 332° |
| 2026-05-09 12:53 | 29.23926 | 47.98181 | 168 ft | 2 kts | 285° |
| 2026-05-09 12:54 | 29.23920 | 47.98148 | 168 ft | 6 kts | 256° |
| 2026-05-09 12:54 | 29.23900 | 47.98097 | 168 ft | 8 kts | 241° |
| 2026-05-09 12:54 | 29.23871 | 47.98031 | 167 ft | 10 kts | 245° |
| 2026-05-09 12:54 | 29.23838 | 47.97946 | 167 ft | 13 kts | 246° |
| 2026-05-09 12:55 | 29.23800 | 47.97846 | 167 ft | 15 kts | 246° |
| 2026-05-09 12:55 | 29.23757 | 47.97730 | 167 ft | 17 kts | 248° |
| 2026-05-09 12:55 | 29.23710 | 47.97599 | 167 ft | 19 kts | 248° |
| 2026-05-09 12:55 | 29.23682 | 47.97484 | 167 ft | 13 kts | 283° |
| 2026-05-09 12:56 | 29.23740 | 47.97430 | 167 ft | 8 kts | 310° |
| 2026-05-09 12:56 | 29.23740 | 47.97363 | 167 ft | 9 kts | 276° |
| 2026-05-09 12:56 | 29.23744 | 47.97333 | 167 ft | 0 kts | 277° |